Terminal Aerodrome Forecast
Issued by NWS

Home | Current Version | Previous Version | Graphics & Text | Print | Product List | Glossary On
Versions: 1 2 3 4 5 6 7 8 9 10 11 12 13
000
FTUS43 KICT 050846 AAA
TAFCNU
TAF AMD
KCNU 050846Z 0509/0606 11008KT P6SM VCTS BKN050CB
      TEMPO 0509/0512 3SM +TSRA SCT015 OVC030CB
     FM051600 13007KT P6SM -SHRA VCTS OVC050CB
     FM051800 12008KT P6SM BKN025=

USA.gov is the U.S. government's official web portal to all federal, state and local government web resources and services.